createdAt,value
2018-05-06T00:00:05.014Z,24.17
2018-05-06T00:02:31.414Z,25.73
2018-05-06T00:04:58.097Z,25.67
2018-05-06T00:07:24.462Z,28.30
2018-05-06T00:09:50.886Z,24.70
2018-05-06T00:12:17.281Z,24.73
2018-05-06T00:14:43.761Z,25.20
2018-05-06T00:17:10.122Z,26.60
2018-05-06T00:19:36.563Z,26.20
2018-05-06T00:22:02.961Z,27.13
2018-05-06T00:24:29.686Z,24.87
2018-05-06T00:26:56.834Z,25.00
2018-05-06T00:29:23.237Z,24.43
2018-05-06T00:31:49.624Z,28.73
2018-05-06T00:34:16.088Z,27.87
2018-05-06T00:36:42.441Z,28.93
2018-05-06T00:39:09.552Z,28.60
2018-05-06T00:41:35.969Z,28.40
2018-05-06T00:44:02.522Z,28.80
2018-05-06T00:46:28.947Z,28.57
2018-05-06T00:48:55.392Z,29.20
2018-05-06T00:51:21.768Z,28.93
2018-05-06T00:53:48.967Z,28.77
2018-05-06T00:56:15.334Z,28.83
2018-05-06T00:58:42.529Z,31.37
2018-05-06T01:01:08.893Z,30.53
2018-05-06T01:03:35.288Z,28.90
2018-05-06T01:06:02.511Z,29.30
2018-05-06T01:08:28.985Z,29.83
2018-05-06T01:10:55.458Z,29.60
2018-05-06T01:13:21.828Z,30.13
2018-05-06T01:15:48.938Z,32.97
2018-05-06T01:18:15.386Z,32.63
2018-05-06T01:20:41.761Z,28.60
2018-05-06T01:23:08.122Z,31.93
2018-05-06T01:25:34.567Z,30.33
2018-05-06T01:28:00.950Z,30.40
2018-05-06T01:30:28.082Z,29.27
2018-05-06T01:32:54.803Z,30.70
2018-05-06T01:35:21.918Z,28.90
2018-05-06T01:37:48.286Z,28.13
2018-05-06T01:40:14.658Z,28.50
2018-05-06T01:42:41.011Z,29.93
2018-05-06T01:45:08.141Z,28.60
2018-05-06T01:47:34.493Z,27.77
2018-05-06T01:50:00.866Z,27.77
2018-05-06T01:52:27.250Z,29.97
2018-05-06T01:54:58.857Z,26.77
2018-05-06T01:57:25.240Z,30.13
2018-05-06T01:59:51.634Z,30.87
2018-05-06T02:02:18.726Z,28.93
2018-05-06T02:04:45.141Z,29.43
2018-05-06T02:07:11.595Z,29.27
2018-05-06T02:09:38.735Z,29.87
2018-05-06T02:12:05.857Z,30.77
2018-05-06T02:14:32.366Z,30.90
2018-05-06T02:16:58.737Z,32.50
2018-05-06T02:19:25.098Z,31.83
2018-05-06T02:21:51.479Z,31.57
2018-05-06T02:24:18.782Z,29.73
2018-05-06T02:26:45.150Z,29.80
2018-05-06T02:29:12.295Z,33.37
2018-05-06T02:31:38.813Z,31.37
2018-05-06T02:34:05.526Z,34.93
2018-05-06T02:36:31.902Z,32.13
2018-05-06T02:38:58.262Z,34.87
2018-05-06T02:41:24.686Z,32.27
2018-05-06T02:43:51.997Z,32.47
2018-05-06T02:46:18.343Z,34.43
2018-05-06T02:48:44.743Z,37.13
2018-05-06T02:51:11.134Z,34.50
2018-05-06T02:53:38.663Z,35.50
2018-05-06T02:56:05.067Z,35.73
2018-05-06T02:58:31.458Z,34.93
2018-05-06T03:00:58.585Z,39.57
2018-05-06T03:03:25.161Z,36.27
2018-05-06T03:05:51.569Z,36.27
2018-05-06T03:08:18.697Z,39.63
2018-05-06T03:10:45.098Z,34.97
2018-05-06T03:13:11.782Z,38.77
2018-05-06T03:15:38.431Z,37.23
2018-05-06T03:18:05.575Z,38.23
2018-05-06T03:20:32.684Z,38.13
2018-05-06T03:22:59.274Z,35.10
2018-05-06T03:25:25.669Z,34.97
2018-05-06T03:27:52.050Z,36.90
2018-05-06T03:30:18.419Z,35.40
2018-05-06T03:32:44.794Z,34.13
2018-05-06T03:35:11.920Z,34.50
2018-05-06T03:37:38.357Z,35.03
2018-05-06T03:40:04.755Z,31.90
2018-05-06T03:42:31.133Z,32.13
2018-05-06T03:44:57.523Z,27.43
2018-05-06T03:47:23.921Z,31.93
2018-05-06T03:49:50.298Z,30.40
2018-05-06T03:52:16.734Z,28.80
2018-05-06T03:54:43.122Z,27.27
2018-05-06T03:57:21.637Z,30.03
2018-05-06T04:00:00.123Z,27.63
2018-05-06T04:02:30.306Z,27.87
2018-05-06T04:04:56.838Z,27.40
2018-05-06T04:07:23.216Z,24.37
2018-05-06T04:09:51.566Z,23.63
2018-05-06T04:12:17.994Z,23.27
2018-05-06T04:14:44.497Z,23.87
2018-05-06T04:17:10.922Z,25.30
2018-05-06T04:19:37.373Z,24.10
2018-05-06T04:22:04.523Z,23.13
2018-05-06T04:24:31.878Z,25.00
2018-05-06T04:26:58.254Z,22.90
2018-05-06T04:29:24.643Z,23.30
2018-05-06T04:31:51.014Z,24.17
2018-05-06T04:34:17.772Z,21.93
2018-05-06T04:36:44.873Z,23.97
2018-05-06T04:39:11.274Z,22.33
2018-05-06T04:41:37.753Z,24.73
2018-05-06T04:44:05.084Z,22.90
2018-05-06T04:46:31.490Z,25.70
2018-05-06T04:48:58.579Z,27.13
2018-05-06T04:51:24.975Z,25.47
2018-05-06T04:53:51.531Z,26.10
2018-05-06T04:56:17.887Z,26.43
2018-05-06T04:58:45.002Z,26.20
2018-05-06T05:01:11.366Z,26.97
2018-05-06T05:03:37.987Z,28.07
2018-05-06T05:06:04.371Z,25.87
2018-05-06T05:08:30.730Z,29.37
2018-05-06T05:10:57.118Z,26.10
2018-05-06T05:13:23.473Z,27.23
2018-05-06T05:15:50.591Z,26.30
2018-05-06T05:18:16.978Z,25.07
2018-05-06T05:20:43.383Z,24.07
2018-05-06T05:23:10.512Z,26.27
2018-05-06T05:25:36.885Z,25.40
2018-05-06T05:28:03.253Z,30.53
2018-05-06T05:30:29.641Z,26.97
2018-05-06T05:32:56.988Z,28.13
2018-05-06T05:35:23.370Z,26.33
2018-05-06T05:37:50.468Z,26.63
2018-05-06T05:40:17.634Z,26.33
2018-05-06T05:42:44.078Z,28.23
2018-05-06T05:45:10.452Z,25.97
2018-05-06T05:47:36.970Z,26.30
2018-05-06T05:50:03.271Z,27.27
2018-05-06T05:52:29.647Z,25.80
2018-05-06T05:54:56.058Z,27.87
2018-05-06T05:57:22.413Z,26.03
2018-05-06T05:59:48.781Z,27.80
2018-05-06T06:02:15.909Z,25.87
2018-05-06T06:04:42.599Z,26.50
2018-05-06T06:07:08.946Z,24.77
2018-05-06T06:09:35.402Z,24.50
2018-05-06T06:12:01.786Z,23.20
2018-05-06T06:14:28.434Z,23.37
2018-05-06T06:16:54.826Z,23.40
2018-05-06T06:19:21.961Z,24.13
2018-05-06T06:21:48.318Z,23.77
2018-05-06T06:24:14.894Z,24.67
2018-05-06T06:26:41.384Z,23.70
2018-05-06T06:29:07.734Z,25.10
2018-05-06T06:31:34.107Z,26.83
2018-05-06T06:34:00.723Z,25.50
2018-05-06T06:36:27.077Z,25.63
2018-05-06T06:38:53.468Z,25.03
2018-05-06T06:41:19.866Z,25.20
2018-05-06T06:43:46.558Z,27.27
2018-05-06T06:46:12.970Z,25.23
2018-05-06T06:48:39.362Z,25.40
2018-05-06T06:51:05.742Z,24.40
2018-05-06T06:53:32.398Z,25.27
2018-05-06T06:55:58.777Z,25.67
2018-05-06T06:58:25.914Z,25.63
2018-05-06T07:00:52.324Z,25.57
2018-05-06T07:03:18.699Z,27.63
2018-05-06T07:05:45.815Z,25.73
2018-05-06T07:08:12.373Z,27.10
2018-05-06T07:10:39.492Z,25.97
2018-05-06T07:13:05.901Z,26.40
2018-05-06T07:15:32.282Z,26.10
2018-05-06T07:17:58.661Z,26.83
2018-05-06T07:20:25.066Z,24.20
2018-05-06T07:22:52.206Z,24.90
2018-05-06T07:25:19.302Z,25.37
2018-05-06T07:27:46.423Z,25.67
2018-05-06T07:30:13.514Z,26.97
2018-05-06T07:32:39.853Z,26.37
2018-05-06T07:35:06.254Z,25.53
2018-05-06T07:37:32.610Z,25.63
2018-05-06T07:39:58.982Z,25.63
2018-05-06T07:42:26.105Z,24.87
2018-05-06T07:44:52.466Z,24.53
2018-05-06T07:47:19.631Z,24.80
2018-05-06T07:49:46.011Z,23.80
2018-05-06T07:52:12.369Z,24.63
2018-05-06T07:54:39.787Z,25.77
2018-05-06T07:57:06.147Z,24.67
2018-05-06T07:59:32.499Z,24.50
2018-05-06T08:01:58.878Z,24.50
2018-05-06T08:04:25.291Z,25.37
2018-05-06T08:06:51.707Z,24.93
2018-05-06T08:09:18.811Z,24.23
2018-05-06T08:11:45.972Z,23.97
2018-05-06T08:14:12.758Z,22.87
2018-05-06T08:16:39.135Z,24.13
2018-05-06T08:19:05.606Z,22.93
2018-05-06T08:21:32.743Z,22.63
2018-05-06T08:23:59.417Z,23.70
2018-05-06T08:26:25.807Z,23.80
2018-05-06T08:28:52.198Z,23.97
2018-05-06T08:31:18.610Z,24.87
2018-05-06T08:33:45.974Z,25.17
2018-05-06T08:36:12.462Z,24.77
2018-05-06T08:38:38.949Z,23.30
2018-05-06T08:41:05.314Z,25.20
2018-05-06T08:43:31.693Z,24.03
2018-05-06T08:45:58.125Z,23.70
2018-05-06T08:48:24.902Z,23.30
2018-05-06T08:50:52.043Z,23.97
2018-05-06T08:53:19.404Z,22.13
2018-05-06T08:55:45.777Z,23.00
2018-05-06T08:58:12.325Z,22.83
2018-05-06T09:00:39.527Z,23.43
2018-05-06T09:03:06.186Z,23.07
2018-05-06T09:05:32.565Z,22.85
2018-05-06T09:07:58.970Z,23.87
2018-05-06T09:10:26.150Z,22.50
2018-05-06T09:12:52.538Z,22.13
2018-05-06T09:15:18.965Z,25.10
2018-05-06T09:17:46.083Z,23.17
2018-05-06T09:20:12.539Z,23.00
2018-05-06T09:22:38.946Z,22.43
2018-05-06T09:25:05.434Z,22.60
2018-05-06T09:27:31.777Z,21.53
2018-05-06T09:29:58.892Z,22.93
2018-05-06T09:32:25.275Z,24.03
2018-05-06T09:34:51.670Z,20.57
2018-05-06T09:37:18.030Z,21.73
2018-05-06T09:39:44.417Z,20.97
2018-05-06T09:42:10.797Z,22.17
2018-05-06T09:44:37.177Z,21.85
2018-05-06T09:47:03.594Z,21.17
2018-05-06T09:49:30.689Z,21.23
2018-05-06T09:51:57.874Z,22.20
2018-05-06T09:54:24.258Z,21.70
2018-05-06T09:56:50.831Z,22.13
2018-05-06T09:59:17.275Z,22.25
2018-05-06T10:01:43.729Z,33.05
2018-05-06T10:04:10.107Z,36.65
2018-05-06T10:06:37.267Z,23.58
2018-05-06T10:09:04.660Z,21.23
2018-05-06T10:11:31.022Z,20.30
2018-05-06T10:13:58.388Z,20.92
2018-05-06T10:16:24.755Z,21.17
2018-05-06T10:18:51.142Z,22.00
2018-05-06T10:21:17.542Z,22.05
2018-05-06T10:23:43.987Z,22.30
2018-05-06T10:26:10.426Z,22.45
2018-05-06T10:28:37.689Z,22.67
2018-05-06T10:31:04.054Z,22.37
2018-05-06T10:33:31.170Z,22.35
2018-05-06T10:35:57.525Z,21.87
2018-05-06T10:38:24.019Z,22.13
2018-05-06T10:40:51.058Z,21.73
2018-05-06T10:43:17.498Z,22.48
2018-05-06T10:45:44.032Z,22.60
2018-05-06T10:48:10.410Z,22.77
2018-05-06T10:50:37.522Z,21.90
2018-05-06T10:53:03.955Z,23.10
2018-05-06T10:55:30.317Z,21.58
2018-05-06T10:57:56.755Z,22.33
2018-05-06T11:00:23.141Z,22.62
2018-05-06T11:02:49.592Z,21.62
2018-05-06T11:05:16.723Z,23.40
2018-05-06T11:07:43.226Z,24.23
2018-05-06T11:10:09.637Z,22.42
2018-05-06T11:12:36.749Z,23.65
2018-05-06T11:15:03.138Z,21.02
2018-05-06T11:17:29.497Z,22.55
2018-05-06T11:19:55.818Z,21.37
2018-05-06T11:22:22.170Z,22.05
2018-05-06T11:24:48.686Z,21.77
2018-05-06T11:27:15.092Z,21.62
2018-05-06T11:29:42.225Z,21.55
2018-05-06T11:32:08.645Z,21.87
2018-05-06T11:34:35.058Z,23.45
2018-05-06T11:37:01.428Z,21.60
2018-05-06T11:39:28.574Z,21.27
2018-05-06T11:41:54.926Z,20.88
2018-05-06T11:44:22.026Z,21.67
2018-05-06T11:46:48.469Z,22.02
2018-05-06T11:49:14.816Z,21.05
2018-05-06T11:51:41.189Z,20.95
2018-05-06T11:54:07.631Z,21.12
2018-05-06T11:56:34.026Z,20.83
2018-05-06T11:59:01.121Z,20.37
2018-05-06T12:01:27.531Z,19.40
2018-05-06T12:03:54.072Z,18.83
2018-05-06T12:06:20.493Z,20.58
2018-05-06T12:08:47.590Z,19.73
2018-05-06T12:11:14.075Z,19.70
2018-05-06T12:13:40.506Z,19.67
2018-05-06T12:16:06.928Z,19.58
2018-05-06T12:18:34.034Z,20.35
2018-05-06T12:21:00.406Z,19.37
2018-05-06T12:23:27.591Z,18.37
2018-05-06T12:25:53.957Z,20.48
2018-05-06T12:28:20.370Z,21.58
2018-05-06T12:30:46.749Z,19.20
2018-05-06T12:33:14.235Z,19.42
2018-05-06T12:35:40.633Z,18.50
2018-05-06T12:38:07.001Z,19.15
2018-05-06T12:40:33.397Z,18.25
2018-05-06T12:42:59.866Z,16.33
2018-05-06T12:45:26.208Z,16.95
2018-05-06T12:47:52.682Z,18.33
2018-05-06T12:50:19.106Z,15.63
2018-05-06T12:52:45.571Z,17.00
2018-05-06T12:55:12.741Z,17.73
2018-05-06T12:57:39.126Z,16.37
2018-05-06T13:00:05.541Z,17.08
2018-05-06T13:02:31.930Z,15.80
2018-05-06T13:04:59.073Z,16.33
2018-05-06T13:07:26.173Z,15.25
2018-05-06T13:09:52.549Z,16.05
2018-05-06T13:12:19.715Z,16.92
2018-05-06T13:14:46.817Z,15.88
2018-05-06T13:17:13.192Z,16.00
2018-05-06T13:19:40.293Z,14.95
2018-05-06T13:22:06.733Z,15.27
2018-05-06T13:24:33.215Z,15.05
2018-05-06T13:26:59.771Z,13.65
2018-05-06T13:29:26.157Z,16.02
2018-05-06T13:31:52.598Z,13.43
2018-05-06T13:34:19.726Z,14.90
2018-05-06T13:36:46.150Z,17.83
2018-05-06T13:39:12.510Z,15.82
2018-05-06T13:41:39.618Z,12.57
2018-05-06T13:44:06.049Z,12.57
2018-05-06T13:46:32.473Z,14.10
2018-05-06T13:48:58.894Z,14.00
2018-05-06T13:51:25.286Z,15.93
2018-05-06T13:53:51.885Z,14.20
2018-05-06T13:56:18.301Z,16.37
2018-05-06T13:58:45.410Z,15.45
2018-05-06T14:01:12.544Z,12.17
2018-05-06T14:03:39.259Z,11.90
2018-05-06T14:06:05.662Z,13.27
2018-05-06T14:08:32.021Z,15.37
2018-05-06T14:10:58.390Z,12.40
2018-05-06T14:13:25.060Z,13.33
2018-05-06T14:15:51.502Z,14.30
2018-05-06T14:18:17.904Z,12.70
2018-05-06T14:20:44.317Z,12.53
2018-05-06T14:23:10.914Z,15.03
2018-05-06T14:25:37.321Z,12.57
2018-05-06T14:28:03.762Z,14.73
2018-05-06T14:30:30.130Z,13.90
2018-05-06T14:32:56.739Z,15.37
2018-05-06T14:35:23.133Z,11.93
2018-05-06T14:37:50.260Z,14.63
2018-05-06T14:40:17.450Z,13.40
2018-05-06T14:42:43.902Z,11.90
2018-05-06T14:45:10.626Z,15.23
2018-05-06T14:47:49.174Z,11.03
2018-05-06T14:50:15.673Z,13.30
2018-05-06T14:52:42.798Z,14.27
2018-05-06T14:55:09.411Z,10.83
2018-05-06T14:57:36.789Z,10.60
2018-05-06T15:00:03.205Z,14.60
2018-05-06T15:02:29.568Z,12.70
2018-05-06T15:04:56.764Z,12.40
2018-05-06T15:07:23.267Z,14.07
2018-05-06T15:09:50.372Z,12.87
2018-05-06T15:12:16.754Z,11.57
2018-05-06T15:14:43.197Z,12.90
2018-05-06T15:17:09.620Z,11.60
2018-05-06T15:19:35.989Z,13.20
2018-05-06T15:22:02.403Z,12.07
2018-05-06T15:24:29.346Z,10.67
2018-05-06T15:29:36.774Z,14.37
2018-05-06T15:32:03.146Z,11.27
2018-05-06T15:34:29.566Z,10.03
2018-05-06T15:36:55.945Z,11.90
2018-05-06T15:39:22.341Z,9.37
2018-05-06T15:41:48.757Z,9.60
2018-05-06T15:44:15.605Z,10.93
2018-05-06T15:46:41.998Z,10.60
2018-05-06T15:49:08.482Z,11.30
2018-05-06T15:51:34.934Z,8.73
2018-05-06T15:54:02.266Z,10.00
2018-05-06T15:56:28.671Z,9.70
2018-05-06T15:58:55.085Z,9.33
2018-05-06T16:01:21.647Z,8.03
2018-05-06T16:04:00.576Z,9.77
2018-05-06T16:06:26.992Z,9.80
2018-05-06T16:08:53.350Z,7.90
2018-05-06T16:11:19.778Z,9.13
2018-05-06T16:13:47.656Z,8.40
2018-05-06T16:16:14.066Z,9.00
2018-05-06T16:18:40.418Z,7.67
2018-05-06T16:21:06.777Z,7.47
2018-05-06T16:23:33.241Z,9.53
2018-05-06T16:25:59.618Z,10.30
2018-05-06T16:28:26.008Z,7.63
2018-05-06T16:30:52.424Z,12.13
2018-05-06T16:33:19.077Z,10.40
2018-05-06T16:35:45.459Z,6.93
2018-05-06T16:38:11.821Z,8.77
2018-05-06T16:40:38.314Z,9.37
2018-05-06T16:43:04.909Z,6.53
2018-05-06T16:45:31.330Z,10.43
2018-05-06T16:47:57.697Z,8.17
2018-05-06T16:50:24.270Z,8.40
2018-05-06T16:52:51.418Z,9.27
2018-05-06T16:55:18.560Z,5.53
2018-05-06T16:57:44.957Z,8.67
2018-05-06T17:00:11.386Z,8.77
2018-05-06T17:02:37.762Z,5.90
2018-05-06T17:05:04.953Z,7.93
2018-05-06T17:07:31.362Z,7.83
2018-05-06T17:09:58.461Z,7.20
2018-05-06T17:12:24.845Z,7.87
2018-05-06T17:14:52.214Z,7.87
2018-05-06T17:17:18.877Z,6.10
2018-05-06T17:19:45.255Z,5.93
2018-05-06T17:22:12.378Z,8.23
2018-05-06T17:24:39.098Z,7.90
2018-05-06T17:27:05.494Z,9.50
2018-05-06T17:29:32.641Z,7.50
2018-05-06T17:31:59.794Z,7.23
2018-05-06T17:34:26.946Z,10.20
2018-05-06T17:36:54.058Z,6.73
2018-05-06T17:39:20.461Z,5.40
2018-05-06T17:41:46.919Z,8.03
2018-05-06T17:44:13.309Z,5.30
2018-05-06T17:46:39.709Z,5.70
2018-05-06T17:49:06.890Z,7.90
2018-05-06T17:51:33.325Z,6.37
2018-05-06T17:53:59.698Z,7.03
2018-05-06T17:56:26.070Z,10.27
2018-05-06T17:58:53.346Z,7.93
2018-05-06T18:01:19.789Z,7.93
2018-05-06T18:03:46.182Z,8.00
2018-05-06T18:06:12.593Z,10.10
2018-05-06T18:08:38.957Z,7.47
2018-05-06T18:11:05.338Z,7.10
2018-05-06T18:13:31.753Z,5.60
2018-05-06T18:15:58.133Z,7.53
2018-05-06T18:18:25.253Z,8.83
2018-05-06T18:20:51.754Z,6.20
2018-05-06T18:23:18.402Z,6.77
2018-05-06T18:25:44.778Z,5.30
2018-05-06T18:28:11.182Z,5.30
2018-05-06T18:30:37.538Z,6.87
2018-05-06T18:33:04.275Z,6.70
2018-05-06T18:35:30.703Z,5.90
2018-05-06T18:37:57.093Z,8.17
2018-05-06T18:40:23.489Z,5.30
2018-05-06T18:42:50.682Z,5.77
2018-05-06T18:45:17.146Z,5.77
2018-05-06T18:47:43.538Z,6.90
2018-05-06T18:50:09.921Z,6.17
2018-05-06T18:52:36.320Z,9.37
2018-05-06T18:55:02.771Z,6.57
2018-05-06T18:57:29.118Z,9.43
2018-05-06T18:59:55.526Z,6.50
2018-05-06T19:02:21.909Z,5.60
2018-05-06T19:04:48.758Z,6.87
2018-05-06T19:07:16.022Z,5.87
2018-05-06T19:09:42.408Z,5.67
2018-05-06T19:12:08.837Z,6.93
2018-05-06T19:14:36.245Z,8.80
2018-05-06T19:17:03.231Z,9.40
2018-05-06T19:19:29.625Z,5.70
2018-05-06T19:21:55.966Z,9.83
2018-05-06T19:24:22.376Z,6.83
2018-05-06T19:26:49.496Z,7.23
2018-05-06T19:29:15.921Z,4.50
2018-05-06T19:31:42.302Z,5.83
2018-05-06T19:34:09.203Z,6.93
2018-05-06T19:36:36.534Z,3.63
2018-05-06T19:39:02.983Z,6.77
2018-05-06T19:41:29.366Z,4.63
2018-05-06T19:43:55.757Z,6.27
2018-05-06T19:46:22.224Z,6.03
2018-05-06T19:48:48.841Z,8.27
2018-05-06T19:51:15.934Z,5.37
2018-05-06T19:53:42.329Z,6.80
2018-05-06T19:56:09.478Z,7.07
2018-05-06T19:58:36.595Z,8.60
2018-05-06T20:01:02.985Z,5.20
2018-05-06T20:03:29.465Z,6.07
2018-05-06T20:05:55.910Z,6.87
2018-05-06T20:08:23.021Z,6.37
2018-05-06T20:10:49.377Z,4.73
2018-05-06T20:13:16.545Z,8.80
2018-05-06T20:15:42.909Z,7.90
2018-05-06T20:18:09.345Z,8.80
2018-05-06T20:20:35.722Z,8.17
2018-05-06T20:23:02.099Z,5.90
2018-05-06T20:25:28.474Z,6.77
2018-05-06T20:27:54.874Z,7.77
2018-05-06T20:30:21.261Z,7.53
2018-05-06T20:32:47.690Z,4.03
2018-05-06T20:35:14.362Z,6.30
2018-05-06T20:37:40.730Z,6.67
2018-05-06T20:40:07.110Z,8.57
2018-05-06T20:42:34.218Z,6.27
2018-05-06T20:45:00.818Z,6.97
2018-05-06T20:47:27.349Z,9.07
2018-05-06T20:49:54.481Z,6.07
2018-05-06T20:52:20.861Z,5.33
2018-05-06T20:54:47.277Z,10.37
2018-05-06T20:57:13.638Z,11.07
2018-05-06T20:59:40.044Z,6.43
2018-05-06T21:02:06.430Z,5.40
2018-05-06T21:04:33.117Z,8.27
2018-05-06T21:06:59.489Z,9.27
2018-05-06T21:09:26.010Z,5.23
2018-05-06T21:11:52.536Z,7.40
2018-05-06T21:14:18.977Z,8.30
2018-05-06T21:16:45.382Z,5.53
2018-05-06T21:19:11.779Z,6.10
2018-05-06T21:21:38.237Z,5.50
2018-05-06T21:24:04.678Z,5.43
2018-05-06T21:26:46.003Z,9.73
2018-05-06T21:29:12.391Z,7.27
2018-05-06T21:31:38.850Z,5.63
2018-05-06T21:34:05.407Z,5.90
2018-05-06T21:36:31.786Z,6.67
2018-05-06T21:38:58.202Z,9.73
2018-05-06T21:41:24.625Z,5.70
2018-05-06T21:43:52.809Z,7.87
2018-05-06T21:46:19.982Z,3.73
2018-05-06T21:48:46.463Z,4.67
2018-05-06T21:51:13.543Z,5.83
2018-05-06T21:53:40.116Z,8.97
2018-05-06T21:56:06.601Z,5.17
2018-05-06T21:58:32.949Z,6.30
2018-05-06T22:00:59.318Z,5.30
2018-05-06T22:03:26.082Z,5.63
2018-05-06T22:05:52.492Z,5.00
2018-05-06T22:08:19.049Z,7.80
2018-05-06T22:10:46.179Z,7.10
2018-05-06T22:13:12.719Z,8.40
2018-05-06T22:15:39.134Z,6.87
2018-05-06T22:18:05.509Z,7.20
2018-05-06T22:20:31.850Z,5.67
2018-05-06T22:22:58.293Z,5.70
2018-05-06T22:25:24.693Z,4.53
2018-05-06T22:27:51.189Z,5.80
2018-05-06T22:30:17.786Z,6.80
2018-05-06T22:32:44.537Z,5.17
2018-05-06T22:35:11.718Z,5.37
2018-05-06T22:37:38.151Z,7.40
2018-05-06T22:40:04.504Z,7.20
2018-05-06T22:42:30.871Z,5.40
2018-05-06T22:44:57.260Z,6.63
2018-05-06T22:47:23.660Z,5.60
2018-05-06T22:49:50.842Z,6.93
2018-05-06T22:52:17.194Z,8.10
2018-05-06T22:54:43.522Z,5.40
2018-05-06T22:57:09.961Z,7.73
2018-05-06T22:59:36.385Z,4.60
2018-05-06T23:02:02.722Z,5.33
2018-05-06T23:04:29.286Z,4.27
2018-05-06T23:06:55.661Z,7.10
2018-05-06T23:09:21.970Z,7.47
2018-05-06T23:11:49.073Z,7.07
2018-05-06T23:14:15.445Z,8.17
2018-05-06T23:16:41.783Z,5.00
2018-05-06T23:19:08.118Z,6.10
2018-05-06T23:21:35.254Z,6.00
2018-05-06T23:24:01.576Z,5.33
2018-05-06T23:26:28.063Z,5.03
2018-05-06T23:28:55.162Z,7.43
2018-05-06T23:31:21.609Z,6.87
2018-05-06T23:33:48.461Z,7.40
2018-05-06T23:36:14.799Z,7.67
2018-05-06T23:38:41.123Z,8.63
2018-05-06T23:41:07.453Z,7.50
2018-05-06T23:43:33.885Z,5.47
2018-05-06T23:46:00.211Z,6.23
2018-05-06T23:48:26.537Z,6.57
2018-05-06T23:50:53.657Z,6.63
2018-05-06T23:53:20.538Z,6.77
2018-05-06T23:55:46.869Z,7.10
2018-05-06T23:58:13.233Z,7.60
